sensor_id;sensor_type;location;lat;lon;timestamp;P1;durP1;ratioP1;P2;durP2;ratioP2
12312;SDS011;6220;53.580;9.758;2023-07-08T00:00:15;5.73;;;4.33;;
12312;SDS011;6220;53.580;9.758;2023-07-08T00:02:42;5.60;;;4.83;;
12312;SDS011;6220;53.580;9.758;2023-07-08T00:05:08;5.70;;;4.57;;
12312;SDS011;6220;53.580;9.758;2023-07-08T00:07:35;6.67;;;4.70;;
12312;SDS011;6220;53.580;9.758;2023-07-08T00:10:01;7.73;;;5.80;;
12312;SDS011;6220;53.580;9.758;2023-07-08T00:12:26;6.37;;;4.87;;
12312;SDS011;6220;53.580;9.758;2023-07-08T00:14:51;5.67;;;4.60;;
12312;SDS011;6220;53.580;9.758;2023-07-08T00:17:17;5.90;;;4.57;;
12312;SDS011;6220;53.580;9.758;2023-07-08T00:19:42;6.37;;;4.83;;
12312;SDS011;6220;53.580;9.758;2023-07-08T00:22:14;5.20;;;4.67;;
12312;SDS011;6220;53.580;9.758;2023-07-08T00:24:41;5.70;;;4.30;;
12312;SDS011;6220;53.580;9.758;2023-07-08T00:27:08;7.20;;;4.90;;
12312;SDS011;6220;53.580;9.758;2023-07-08T00:29:36;7.47;;;4.80;;
12312;SDS011;6220;53.580;9.758;2023-07-08T00:32:01;10.13;;;5.00;;
12312;SDS011;6220;53.580;9.758;2023-07-08T00:34:29;6.93;;;4.93;;
12312;SDS011;6220;53.580;9.758;2023-07-08T00:36:55;5.33;;;4.60;;
12312;SDS011;6220;53.580;9.758;2023-07-08T00:39:20;6.37;;;4.70;;
12312;SDS011;6220;53.580;9.758;2023-07-08T00:41:45;6.50;;;4.40;;
12312;SDS011;6220;53.580;9.758;2023-07-08T00:44:11;5.70;;;4.67;;
12312;SDS011;6220;53.580;9.758;2023-07-08T00:46:40;8.63;;;5.17;;
12312;SDS011;6220;53.580;9.758;2023-07-08T00:52:23;6.17;;;5.20;;
12312;SDS011;6220;53.580;9.758;2023-07-08T00:54:53;6.57;;;4.53;;
12312;SDS011;6220;53.580;9.758;2023-07-08T00:57:23;7.90;;;4.63;;
12312;SDS011;6220;53.580;9.758;2023-07-08T01:02:22;5.33;;;4.83;;
12312;SDS011;6220;53.580;9.758;2023-07-08T01:04:54;5.30;;;4.80;;
12312;SDS011;6220;53.580;9.758;2023-07-08T01:07:26;7.13;;;5.20;;
12312;SDS011;6220;53.580;9.758;2023-07-08T01:09:55;4.67;;;4.13;;
12312;SDS011;6220;53.580;9.758;2023-07-08T01:12:29;6.60;;;4.60;;
12312;SDS011;6220;53.580;9.758;2023-07-08T01:14:57;7.13;;;5.00;;
12312;SDS011;6220;53.580;9.758;2023-07-08T01:17:24;5.40;;;4.30;;
12312;SDS011;6220;53.580;9.758;2023-07-08T01:19:49;5.37;;;4.87;;
12312;SDS011;6220;53.580;9.758;2023-07-08T01:22:16;9.57;;;5.03;;
12312;SDS011;6220;53.580;9.758;2023-07-08T01:24:42;8.67;;;4.70;;
12312;SDS011;6220;53.580;9.758;2023-07-08T01:27:10;7.70;;;5.67;;
12312;SDS011;6220;53.580;9.758;2023-07-08T01:29:37;6.20;;;4.97;;
12312;SDS011;6220;53.580;9.758;2023-07-08T01:32:03;6.63;;;5.13;;
12312;SDS011;6220;53.580;9.758;2023-07-08T01:34:29;6.67;;;5.10;;
12312;SDS011;6220;53.580;9.758;2023-07-08T01:36:55;6.83;;;5.00;;
12312;SDS011;6220;53.580;9.758;2023-07-08T01:39:22;8.37;;;4.90;;
12312;SDS011;6220;53.580;9.758;2023-07-08T01:41:49;9.30;;;5.13;;
12312;SDS011;6220;53.580;9.758;2023-07-08T01:44:22;7.57;;;4.97;;
12312;SDS011;6220;53.580;9.758;2023-07-08T01:46:58;6.30;;;4.97;;
12312;SDS011;6220;53.580;9.758;2023-07-08T01:49:28;5.23;;;4.40;;
12312;SDS011;6220;53.580;9.758;2023-07-08T01:51:53;6.97;;;4.97;;
12312;SDS011;6220;53.580;9.758;2023-07-08T01:54:19;5.43;;;4.83;;
12312;SDS011;6220;53.580;9.758;2023-07-08T01:56:44;7.53;;;5.30;;
12312;SDS011;6220;53.580;9.758;2023-07-08T01:59:10;6.73;;;4.63;;
12312;SDS011;6220;53.580;9.758;2023-07-08T02:01:35;7.43;;;4.93;;
12312;SDS011;6220;53.580;9.758;2023-07-08T02:04:00;7.10;;;5.03;;
12312;SDS011;6220;53.580;9.758;2023-07-08T02:06:26;5.43;;;4.70;;
12312;SDS011;6220;53.580;9.758;2023-07-08T02:08:51;5.37;;;4.73;;
12312;SDS011;6220;53.580;9.758;2023-07-08T02:11:17;6.60;;;5.10;;
12312;SDS011;6220;53.580;9.758;2023-07-08T02:13:42;5.33;;;4.83;;
12312;SDS011;6220;53.580;9.758;2023-07-08T02:16:07;6.00;;;4.57;;
12312;SDS011;6220;53.580;9.758;2023-07-08T02:18:33;6.53;;;4.80;;
12312;SDS011;6220;53.580;9.758;2023-07-08T02:20:58;5.70;;;4.80;;
12312;SDS011;6220;53.580;9.758;2023-07-08T02:23:24;6.50;;;4.80;;
12312;SDS011;6220;53.580;9.758;2023-07-08T02:25:51;8.07;;;4.80;;
12312;SDS011;6220;53.580;9.758;2023-07-08T02:28:17;7.07;;;4.90;;
12312;SDS011;6220;53.580;9.758;2023-07-08T02:30:42;6.47;;;4.70;;
12312;SDS011;6220;53.580;9.758;2023-07-08T02:33:07;4.93;;;4.40;;
12312;SDS011;6220;53.580;9.758;2023-07-08T02:35:34;5.77;;;4.83;;
12312;SDS011;6220;53.580;9.758;2023-07-08T02:38:00;7.20;;;5.07;;
12312;SDS011;6220;53.580;9.758;2023-07-08T02:40:25;5.97;;;4.73;;
12312;SDS011;6220;53.580;9.758;2023-07-08T02:42:51;5.30;;;4.57;;
12312;SDS011;6220;53.580;9.758;2023-07-08T02:45:16;6.57;;;4.87;;
12312;SDS011;6220;53.580;9.758;2023-07-08T02:47:42;7.23;;;4.80;;
12312;SDS011;6220;53.580;9.758;2023-07-08T02:50:08;6.93;;;5.07;;
12312;SDS011;6220;53.580;9.758;2023-07-08T02:52:34;7.67;;;4.73;;
12312;SDS011;6220;53.580;9.758;2023-07-08T02:54:59;5.03;;;4.50;;
12312;SDS011;6220;53.580;9.758;2023-07-08T02:57:25;6.17;;;4.53;;
12312;SDS011;6220;53.580;9.758;2023-07-08T02:59:50;9.30;;;5.13;;
12312;SDS011;6220;53.580;9.758;2023-07-08T03:02:16;5.43;;;4.80;;
12312;SDS011;6220;53.580;9.758;2023-07-08T03:04:41;5.93;;;4.80;;
12312;SDS011;6220;53.580;9.758;2023-07-08T03:07:07;5.90;;;4.90;;
12312;SDS011;6220;53.580;9.758;2023-07-08T03:09:36;7.10;;;5.47;;
12312;SDS011;6220;53.580;9.758;2023-07-08T03:12:05;7.10;;;4.70;;
12312;SDS011;6220;53.580;9.758;2023-07-08T03:14:31;5.33;;;4.60;;
12312;SDS011;6220;53.580;9.758;2023-07-08T03:16:57;6.50;;;5.13;;
12312;SDS011;6220;53.580;9.758;2023-07-08T03:19:22;5.77;;;4.30;;
12312;SDS011;6220;53.580;9.758;2023-07-08T03:21:48;7.57;;;4.57;;
12312;SDS011;6220;53.580;9.758;2023-07-08T03:24:13;6.40;;;4.93;;
12312;SDS011;6220;53.580;9.758;2023-07-08T03:26:43;6.57;;;4.97;;
12312;SDS011;6220;53.580;9.758;2023-07-08T03:29:10;7.77;;;4.53;;
12312;SDS011;6220;53.580;9.758;2023-07-08T03:31:38;5.27;;;4.60;;
12312;SDS011;6220;53.580;9.758;2023-07-08T03:34:04;6.40;;;4.87;;
12312;SDS011;6220;53.580;9.758;2023-07-08T03:36:29;7.37;;;5.00;;
12312;SDS011;6220;53.580;9.758;2023-07-08T03:38:56;14.30;;;5.27;;
12312;SDS011;6220;53.580;9.758;2023-07-08T03:41:22;5.13;;;4.57;;
12312;SDS011;6220;53.580;9.758;2023-07-08T03:43:48;6.77;;;4.93;;
12312;SDS011;6220;53.580;9.758;2023-07-08T03:46:15;5.63;;;4.67;;
12312;SDS011;6220;53.580;9.758;2023-07-08T03:48:45;4.90;;;4.40;;
12312;SDS011;6220;53.580;9.758;2023-07-08T03:51:13;6.97;;;4.50;;
12312;SDS011;6220;53.580;9.758;2023-07-08T03:53:42;5.23;;;4.53;;
12312;SDS011;6220;53.580;9.758;2023-07-08T03:56:09;6.20;;;4.57;;
12312;SDS011;6220;53.580;9.758;2023-07-08T03:58:37;5.90;;;4.17;;
12312;SDS011;6220;53.580;9.758;2023-07-08T04:01:02;5.57;;;4.43;;
12312;SDS011;6220;53.580;9.758;2023-07-08T04:03:27;5.83;;;4.27;;
12312;SDS011;6220;53.580;9.758;2023-07-08T04:05:53;7.20;;;4.60;;
12312;SDS011;6220;53.580;9.758;2023-07-08T04:08:18;7.40;;;4.43;;
12312;SDS011;6220;53.580;9.758;2023-07-08T04:10:43;4.97;;;4.03;;
12312;SDS011;6220;53.580;9.758;2023-07-08T04:13:09;6.67;;;4.30;;
12312;SDS011;6220;53.580;9.758;2023-07-08T04:15:34;5.83;;;4.00;;
12312;SDS011;6220;53.580;9.758;2023-07-08T04:17:59;5.57;;;4.30;;
12312;SDS011;6220;53.580;9.758;2023-07-08T04:20:25;5.43;;;3.73;;
12312;SDS011;6220;53.580;9.758;2023-07-08T04:22:50;4.60;;;4.20;;
12312;SDS011;6220;53.580;9.758;2023-07-08T04:25:17;5.57;;;3.50;;
12312;SDS011;6220;53.580;9.758;2023-07-08T04:27:43;6.47;;;4.07;;
12312;SDS011;6220;53.580;9.758;2023-07-08T04:30:18;4.77;;;4.03;;
12312;SDS011;6220;53.580;9.758;2023-07-08T04:32:46;5.20;;;3.83;;
12312;SDS011;6220;53.580;9.758;2023-07-08T04:35:12;6.33;;;3.73;;
12312;SDS011;6220;53.580;9.758;2023-07-08T04:37:37;7.83;;;4.17;;
12312;SDS011;6220;53.580;9.758;2023-07-08T04:40:03;6.17;;;3.43;;
12312;SDS011;6220;53.580;9.758;2023-07-08T04:42:30;6.27;;;3.87;;
12312;SDS011;6220;53.580;9.758;2023-07-08T04:44:55;5.57;;;3.70;;
12312;SDS011;6220;53.580;9.758;2023-07-08T04:47:20;6.00;;;3.87;;
12312;SDS011;6220;53.580;9.758;2023-07-08T04:49:46;8.87;;;3.60;;
12312;SDS011;6220;53.580;9.758;2023-07-08T04:52:12;6.30;;;3.60;;
12312;SDS011;6220;53.580;9.758;2023-07-08T04:54:37;5.10;;;3.47;;
12312;SDS011;6220;53.580;9.758;2023-07-08T04:57:03;9.07;;;3.93;;
12312;SDS011;6220;53.580;9.758;2023-07-08T04:59:28;5.67;;;3.43;;
12312;SDS011;6220;53.580;9.758;2023-07-08T05:01:59;6.93;;;3.53;;
12312;SDS011;6220;53.580;9.758;2023-07-08T05:04:25;7.10;;;3.67;;
12312;SDS011;6220;53.580;9.758;2023-07-08T05:06:50;5.37;;;3.20;;
12312;SDS011;6220;53.580;9.758;2023-07-08T05:09:15;3.97;;;3.50;;
12312;SDS011;6220;53.580;9.758;2023-07-08T05:11:41;8.73;;;3.30;;
12312;SDS011;6220;53.580;9.758;2023-07-08T05:14:07;3.97;;;3.13;;
12312;SDS011;6220;53.580;9.758;2023-07-08T05:16:33;10.47;;;3.43;;
12312;SDS011;6220;53.580;9.758;2023-07-08T05:18:59;4.97;;;3.43;;
12312;SDS011;6220;53.580;9.758;2023-07-08T05:21:24;4.60;;;3.20;;
12312;SDS011;6220;53.580;9.758;2023-07-08T05:23:52;6.73;;;3.83;;
12312;SDS011;6220;53.580;9.758;2023-07-08T05:26:18;4.00;;;3.20;;
12312;SDS011;6220;53.580;9.758;2023-07-08T05:28:43;5.77;;;3.40;;
12312;SDS011;6220;53.580;9.758;2023-07-08T05:31:09;4.10;;;3.30;;
12312;SDS011;6220;53.580;9.758;2023-07-08T05:33:34;4.60;;;3.30;;
12312;SDS011;6220;53.580;9.758;2023-07-08T05:36:00;5.60;;;3.67;;
12312;SDS011;6220;53.580;9.758;2023-07-08T05:38:25;4.97;;;3.50;;
12312;SDS011;6220;53.580;9.758;2023-07-08T05:40:53;5.63;;;3.93;;
12312;SDS011;6220;53.580;9.758;2023-07-08T05:43:20;5.63;;;3.37;;
12312;SDS011;6220;53.580;9.758;2023-07-08T05:45:46;6.53;;;3.10;;
12312;SDS011;6220;53.580;9.758;2023-07-08T05:48:12;5.00;;;3.10;;
12312;SDS011;6220;53.580;9.758;2023-07-08T05:50:38;6.37;;;3.57;;
12312;SDS011;6220;53.580;9.758;2023-07-08T05:53:04;4.60;;;3.03;;
12312;SDS011;6220;53.580;9.758;2023-07-08T05:55:30;4.77;;;3.00;;
12312;SDS011;6220;53.580;9.758;2023-07-08T05:57:56;4.77;;;3.40;;
12312;SDS011;6220;53.580;9.758;2023-07-08T06:00:22;5.13;;;3.03;;
12312;SDS011;6220;53.580;9.758;2023-07-08T06:02:47;5.00;;;3.07;;
12312;SDS011;6220;53.580;9.758;2023-07-08T06:05:12;6.97;;;3.30;;
12312;SDS011;6220;53.580;9.758;2023-07-08T06:07:38;5.23;;;3.40;;
12312;SDS011;6220;53.580;9.758;2023-07-08T06:10:03;4.87;;;3.60;;
12312;SDS011;6220;53.580;9.758;2023-07-08T06:12:29;4.33;;;2.83;;
12312;SDS011;6220;53.580;9.758;2023-07-08T06:14:55;4.07;;;2.90;;
12312;SDS011;6220;53.580;9.758;2023-07-08T06:17:20;7.83;;;3.53;;
12312;SDS011;6220;53.580;9.758;2023-07-08T06:19:46;4.33;;;3.33;;
12312;SDS011;6220;53.580;9.758;2023-07-08T06:22:11;4.20;;;3.03;;
12312;SDS011;6220;53.580;9.758;2023-07-08T06:24:36;4.93;;;3.00;;
12312;SDS011;6220;53.580;9.758;2023-07-08T06:27:02;6.57;;;3.53;;
12312;SDS011;6220;53.580;9.758;2023-07-08T06:29:27;4.93;;;3.50;;
12312;SDS011;6220;53.580;9.758;2023-07-08T06:31:52;5.57;;;3.03;;
12312;SDS011;6220;53.580;9.758;2023-07-08T06:34:18;4.80;;;2.90;;
12312;SDS011;6220;53.580;9.758;2023-07-08T06:36:47;4.20;;;3.20;;
12312;SDS011;6220;53.580;9.758;2023-07-08T06:39:13;5.13;;;3.37;;
12312;SDS011;6220;53.580;9.758;2023-07-08T06:41:38;4.93;;;3.27;;
12312;SDS011;6220;53.580;9.758;2023-07-08T06:44:04;4.10;;;3.23;;
12312;SDS011;6220;53.580;9.758;2023-07-08T06:46:29;5.20;;;3.10;;
12312;SDS011;6220;53.580;9.758;2023-07-08T06:48:54;4.33;;;3.20;;
12312;SDS011;6220;53.580;9.758;2023-07-08T06:51:20;5.30;;;3.17;;
12312;SDS011;6220;53.580;9.758;2023-07-08T06:53:45;4.80;;;3.10;;
12312;SDS011;6220;53.580;9.758;2023-07-08T06:56:11;5.00;;;3.20;;
12312;SDS011;6220;53.580;9.758;2023-07-08T06:58:36;3.93;;;3.10;;
12312;SDS011;6220;53.580;9.758;2023-07-08T07:01:02;3.37;;;3.00;;
12312;SDS011;6220;53.580;9.758;2023-07-08T07:03:27;4.10;;;3.10;;
12312;SDS011;6220;53.580;9.758;2023-07-08T07:05:52;4.37;;;2.80;;
12312;SDS011;6220;53.580;9.758;2023-07-08T07:08:18;5.47;;;3.47;;
12312;SDS011;6220;53.580;9.758;2023-07-08T07:10:43;4.00;;;2.90;;
12312;SDS011;6220;53.580;9.758;2023-07-08T07:13:09;3.67;;;2.70;;
12312;SDS011;6220;53.580;9.758;2023-07-08T07:15:34;4.87;;;3.10;;
12312;SDS011;6220;53.580;9.758;2023-07-08T07:18:00;4.67;;;2.90;;
12312;SDS011;6220;53.580;9.758;2023-07-08T07:20:26;5.17;;;2.77;;
12312;SDS011;6220;53.580;9.758;2023-07-08T07:22:52;3.97;;;3.07;;
12312;SDS011;6220;53.580;9.758;2023-07-08T07:25:18;5.93;;;3.03;;
12312;SDS011;6220;53.580;9.758;2023-07-08T07:27:43;5.70;;;3.00;;
12312;SDS011;6220;53.580;9.758;2023-07-08T07:30:09;5.00;;;2.70;;
12312;SDS011;6220;53.580;9.758;2023-07-08T07:32:37;6.23;;;2.67;;
12312;SDS011;6220;53.580;9.758;2023-07-08T07:35:03;3.47;;;2.50;;
12312;SDS011;6220;53.580;9.758;2023-07-08T07:37:29;7.00;;;2.93;;
12312;SDS011;6220;53.580;9.758;2023-07-08T07:39:55;5.03;;;3.10;;
12312;SDS011;6220;53.580;9.758;2023-07-08T07:42:20;4.83;;;2.80;;
12312;SDS011;6220;53.580;9.758;2023-07-08T07:44:45;3.93;;;2.73;;
12312;SDS011;6220;53.580;9.758;2023-07-08T07:47:11;3.77;;;2.90;;
12312;SDS011;6220;53.580;9.758;2023-07-08T07:49:36;4.30;;;2.90;;
12312;SDS011;6220;53.580;9.758;2023-07-08T07:52:02;3.90;;;2.90;;
12312;SDS011;6220;53.580;9.758;2023-07-08T07:54:28;5.33;;;2.80;;
12312;SDS011;6220;53.580;9.758;2023-07-08T07:56:54;6.20;;;3.20;;
12312;SDS011;6220;53.580;9.758;2023-07-08T07:59:19;3.10;;;2.77;;
12312;SDS011;6220;53.580;9.758;2023-07-08T08:01:44;3.50;;;2.67;;
12312;SDS011;6220;53.580;9.758;2023-07-08T08:04:10;5.33;;;2.83;;
12312;SDS011;6220;53.580;9.758;2023-07-08T08:06:36;4.40;;;2.67;;
12312;SDS011;6220;53.580;9.758;2023-07-08T08:09:02;2.93;;;2.70;;
12312;SDS011;6220;53.580;9.758;2023-07-08T08:11:28;3.83;;;3.47;;
12312;SDS011;6220;53.580;9.758;2023-07-08T08:13:54;4.73;;;3.50;;
12312;SDS011;6220;53.580;9.758;2023-07-08T08:16:19;4.20;;;3.47;;
12312;SDS011;6220;53.580;9.758;2023-07-08T08:18:45;16.60;;;10.83;;
12312;SDS011;6220;53.580;9.758;2023-07-08T08:21:11;5.27;;;3.87;;
12312;SDS011;6220;53.580;9.758;2023-07-08T08:23:36;4.67;;;2.80;;
12312;SDS011;6220;53.580;9.758;2023-07-08T08:26:02;5.90;;;2.90;;
12312;SDS011;6220;53.580;9.758;2023-07-08T08:28:27;3.63;;;2.47;;
12312;SDS011;6220;53.580;9.758;2023-07-08T08:30:52;5.00;;;2.80;;
12312;SDS011;6220;53.580;9.758;2023-07-08T08:33:18;5.23;;;3.10;;
12312;SDS011;6220;53.580;9.758;2023-07-08T08:35:45;4.47;;;2.80;;
12312;SDS011;6220;53.580;9.758;2023-07-08T08:38:10;7.17;;;3.27;;
12312;SDS011;6220;53.580;9.758;2023-07-08T08:40:36;6.20;;;3.00;;
12312;SDS011;6220;53.580;9.758;2023-07-08T08:43:16;5.10;;;3.07;;
12312;SDS011;6220;53.580;9.758;2023-07-08T08:45:47;5.47;;;2.97;;
12312;SDS011;6220;53.580;9.758;2023-07-08T08:48:17;3.40;;;2.83;;
12312;SDS011;6220;53.580;9.758;2023-07-08T08:53:25;4.87;;;2.70;;
12312;SDS011;6220;53.580;9.758;2023-07-08T08:56:03;6.43;;;3.00;;
12312;SDS011;6220;53.580;9.758;2023-07-08T08:58:44;3.47;;;2.57;;
12312;SDS011;6220;53.580;9.758;2023-07-08T09:01:16;3.47;;;2.90;;
12312;SDS011;6220;53.580;9.758;2023-07-08T09:08:51;4.37;;;2.83;;
12312;SDS011;6220;53.580;9.758;2023-07-08T09:14:14;4.63;;;2.80;;
12312;SDS011;6220;53.580;9.758;2023-07-08T09:16:52;3.20;;;2.80;;
12312;SDS011;6220;53.580;9.758;2023-07-08T09:19:38;2.83;;;2.53;;
12312;SDS011;6220;53.580;9.758;2023-07-08T09:27:43;3.47;;;2.80;;
12312;SDS011;6220;53.580;9.758;2023-07-08T09:30:15;5.07;;;2.80;;
12312;SDS011;6220;53.580;9.758;2023-07-08T09:32:41;4.17;;;3.17;;
12312;SDS011;6220;53.580;9.758;2023-07-08T09:35:07;3.00;;;2.73;;
12312;SDS011;6220;53.580;9.758;2023-07-08T09:37:37;5.00;;;3.00;;
12312;SDS011;6220;53.580;9.758;2023-07-08T09:40:17;4.63;;;3.03;;
12312;SDS011;6220;53.580;9.758;2023-07-08T09:42:58;5.63;;;2.80;;
12312;SDS011;6220;53.580;9.758;2023-07-08T09:45:27;3.57;;;2.90;;
12312;SDS011;6220;53.580;9.758;2023-07-08T09:47:54;3.73;;;3.17;;
12312;SDS011;6220;53.580;9.758;2023-07-08T09:50:25;2.73;;;2.53;;
12312;SDS011;6220;53.580;9.758;2023-07-08T09:52:53;4.20;;;2.90;;
12312;SDS011;6220;53.580;9.758;2023-07-08T09:55:22;7.33;;;2.80;;
12312;SDS011;6220;53.580;9.758;2023-07-08T09:57:49;6.47;;;2.50;;
12312;SDS011;6220;53.580;9.758;2023-07-08T10:00:24;3.93;;;3.00;;
12312;SDS011;6220;53.580;9.758;2023-07-08T10:02:56;3.97;;;3.03;;
12312;SDS011;6220;53.580;9.758;2023-07-08T10:05:30;5.80;;;3.10;;
12312;SDS011;6220;53.580;9.758;2023-07-08T10:07:59;3.37;;;2.70;;
12312;SDS011;6220;53.580;9.758;2023-07-08T10:10:30;5.17;;;2.90;;
12312;SDS011;6220;53.580;9.758;2023-07-08T10:15:51;4.43;;;3.03;;
12312;SDS011;6220;53.580;9.758;2023-07-08T10:18:21;3.97;;;2.90;;
12312;SDS011;6220;53.580;9.758;2023-07-08T10:26:07;4.43;;;2.63;;
12312;SDS011;6220;53.580;9.758;2023-07-08T10:28:44;5.63;;;2.90;;
12312;SDS011;6220;53.580;9.758;2023-07-08T10:31:16;7.17;;;3.23;;
12312;SDS011;6220;53.580;9.758;2023-07-08T10:34:24;4.23;;;2.80;;
12312;SDS011;6220;53.580;9.758;2023-07-08T10:45:41;3.57;;;2.97;;
12312;SDS011;6220;53.580;9.758;2023-07-08T10:56:40;6.23;;;4.10;;
12312;SDS011;6220;53.580;9.758;2023-07-08T11:02:10;3.30;;;3.00;;
12312;SDS011;6220;53.580;9.758;2023-07-08T11:10:47;5.17;;;2.97;;
12312;SDS011;6220;53.580;9.758;2023-07-08T11:12:59;5.37;;;3.10;;
12312;SDS011;6220;53.580;9.758;2023-07-08T11:21:01;3.20;;;2.90;;
12312;SDS011;6220;53.580;9.758;2023-07-08T11:23:32;6.33;;;2.83;;
12312;SDS011;6220;53.580;9.758;2023-07-08T11:26:23;3.33;;;2.83;;
12312;SDS011;6220;53.580;9.758;2023-07-08T11:29:01;3.60;;;3.03;;
12312;SDS011;6220;53.580;9.758;2023-07-08T11:31:29;3.03;;;2.80;;
12312;SDS011;6220;53.580;9.758;2023-07-08T11:33:56;4.10;;;2.90;;
12312;SDS011;6220;53.580;9.758;2023-07-08T11:36:22;3.07;;;2.77;;
12312;SDS011;6220;53.580;9.758;2023-07-08T11:38:49;4.20;;;3.07;;
12312;SDS011;6220;53.580;9.758;2023-07-08T11:41:16;4.67;;;2.83;;
12312;SDS011;6220;53.580;9.758;2023-07-08T11:43:53;6.10;;;2.73;;
12312;SDS011;6220;53.580;9.758;2023-07-08T11:46:22;3.37;;;3.00;;
12312;SDS011;6220;53.580;9.758;2023-07-08T11:48:53;3.27;;;2.90;;
12312;SDS011;6220;53.580;9.758;2023-07-08T11:51:30;3.73;;;3.00;;
12312;SDS011;6220;53.580;9.758;2023-07-08T11:56:28;3.13;;;2.83;;
12312;SDS011;6220;53.580;9.758;2023-07-08T11:59:14;4.17;;;3.07;;
12312;SDS011;6220;53.580;9.758;2023-07-08T12:01:51;3.53;;;3.23;;
12312;SDS011;6220;53.580;9.758;2023-07-08T12:04:28;4.23;;;3.07;;
12312;SDS011;6220;53.580;9.758;2023-07-08T12:07:15;4.63;;;3.03;;
12312;SDS011;6220;53.580;9.758;2023-07-08T12:10:04;4.60;;;2.80;;
12312;SDS011;6220;53.580;9.758;2023-07-08T12:12:42;7.20;;;3.20;;
12312;SDS011;6220;53.580;9.758;2023-07-08T12:17:34;4.07;;;2.87;;
12312;SDS011;6220;53.580;9.758;2023-07-08T12:20:01;4.03;;;2.90;;
12312;SDS011;6220;53.580;9.758;2023-07-08T12:22:28;2.80;;;2.60;;
12312;SDS011;6220;53.580;9.758;2023-07-08T12:24:53;4.43;;;3.07;;
12312;SDS011;6220;53.580;9.758;2023-07-08T12:27:21;5.30;;;2.70;;
12312;SDS011;6220;53.580;9.758;2023-07-08T12:29:46;4.40;;;3.27;;
12312;SDS011;6220;53.580;9.758;2023-07-08T12:32:11;4.43;;;3.20;;
12312;SDS011;6220;53.580;9.758;2023-07-08T12:34:38;4.27;;;3.10;;
12312;SDS011;6220;53.580;9.758;2023-07-08T12:37:04;4.60;;;3.03;;
12312;SDS011;6220;53.580;9.758;2023-07-08T12:39:29;7.00;;;3.57;;
12312;SDS011;6220;53.580;9.758;2023-07-08T12:41:59;4.80;;;2.77;;
12312;SDS011;6220;53.580;9.758;2023-07-08T12:44:25;4.90;;;3.10;;
12312;SDS011;6220;53.580;9.758;2023-07-08T12:46:52;5.30;;;2.80;;
12312;SDS011;6220;53.580;9.758;2023-07-08T12:49:19;4.70;;;3.13;;
12312;SDS011;6220;53.580;9.758;2023-07-08T12:51:46;5.40;;;2.97;;
12312;SDS011;6220;53.580;9.758;2023-07-08T12:54:12;3.73;;;3.13;;
12312;SDS011;6220;53.580;9.758;2023-07-08T12:56:38;3.77;;;2.97;;
12312;SDS011;6220;53.580;9.758;2023-07-08T12:59:05;8.43;;;3.43;;
12312;SDS011;6220;53.580;9.758;2023-07-08T13:01:31;4.90;;;3.30;;
12312;SDS011;6220;53.580;9.758;2023-07-08T13:03:59;4.90;;;3.10;;
12312;SDS011;6220;53.580;9.758;2023-07-08T13:06:29;3.83;;;3.17;;
12312;SDS011;6220;53.580;9.758;2023-07-08T13:09:00;4.93;;;2.87;;
12312;SDS011;6220;53.580;9.758;2023-07-08T13:11:46;3.40;;;2.90;;
12312;SDS011;6220;53.580;9.758;2023-07-08T13:14:11;3.90;;;3.50;;
12312;SDS011;6220;53.580;9.758;2023-07-08T13:16:38;3.87;;;3.17;;
12312;SDS011;6220;53.580;9.758;2023-07-08T13:19:03;3.87;;;3.30;;
12312;SDS011;6220;53.580;9.758;2023-07-08T13:21:29;4.63;;;3.60;;
12312;SDS011;6220;53.580;9.758;2023-07-08T13:23:55;5.40;;;3.13;;
12312;SDS011;6220;53.580;9.758;2023-07-08T13:26:22;5.33;;;3.17;;
12312;SDS011;6220;53.580;9.758;2023-07-08T13:28:49;4.97;;;3.17;;
12312;SDS011;6220;53.580;9.758;2023-07-08T13:31:19;4.73;;;3.30;;
12312;SDS011;6220;53.580;9.758;2023-07-08T13:33:50;5.83;;;3.40;;
12312;SDS011;6220;53.580;9.758;2023-07-08T13:36:17;3.63;;;3.30;;
12312;SDS011;6220;53.580;9.758;2023-07-08T13:38:44;4.63;;;3.47;;
12312;SDS011;6220;53.580;9.758;2023-07-08T13:41:10;4.30;;;2.97;;
12312;SDS011;6220;53.580;9.758;2023-07-08T13:43:43;3.73;;;3.20;;
12312;SDS011;6220;53.580;9.758;2023-07-08T13:49:22;4.67;;;3.37;;
12312;SDS011;6220;53.580;9.758;2023-07-08T13:54:39;5.05;;;3.20;;
12312;SDS011;6220;53.580;9.758;2023-07-08T13:57:11;6.13;;;3.03;;
12312;SDS011;6220;53.580;9.758;2023-07-08T13:59:37;4.60;;;3.50;;
12312;SDS011;6220;53.580;9.758;2023-07-08T14:02:08;5.07;;;3.60;;
12312;SDS011;6220;53.580;9.758;2023-07-08T14:04:58;4.90;;;3.50;;
12312;SDS011;6220;53.580;9.758;2023-07-08T14:07:26;4.87;;;3.73;;
12312;SDS011;6220;53.580;9.758;2023-07-08T14:09:52;4.18;;;3.78;;
12312;SDS011;6220;53.580;9.758;2023-07-08T14:12:19;4.07;;;3.60;;
12312;SDS011;6220;53.580;9.758;2023-07-08T14:14:44;5.07;;;3.83;;
12312;SDS011;6220;53.580;9.758;2023-07-08T14:17:11;5.43;;;3.60;;
12312;SDS011;6220;53.580;9.758;2023-07-08T14:19:37;3.53;;;3.20;;
12312;SDS011;6220;53.580;9.758;2023-07-08T14:22:36;4.80;;;3.83;;
12312;SDS011;6220;53.580;9.758;2023-07-08T14:24:55;4.00;;;3.57;;
12312;SDS011;6220;53.580;9.758;2023-07-08T14:27:21;4.70;;;4.13;;
12312;SDS011;6220;53.580;9.758;2023-07-08T14:29:48;5.73;;;3.90;;
12312;SDS011;6220;53.580;9.758;2023-07-08T14:32:20;4.00;;;3.60;;
12312;SDS011;6220;53.580;9.758;2023-07-08T14:34:52;4.87;;;3.53;;
12312;SDS011;6220;53.580;9.758;2023-07-08T14:37:20;5.90;;;3.70;;
12312;SDS011;6220;53.580;9.758;2023-07-08T14:39:46;3.73;;;3.33;;
12312;SDS011;6220;53.580;9.758;2023-07-08T14:42:11;6.07;;;5.47;;
12312;SDS011;6220;53.580;9.758;2023-07-08T14:44:39;7.43;;;5.53;;
12312;SDS011;6220;53.580;9.758;2023-07-08T14:47:08;4.53;;;3.47;;
12312;SDS011;6220;53.580;9.758;2023-07-08T14:49:35;4.47;;;3.77;;
12312;SDS011;6220;53.580;9.758;2023-07-08T14:52:00;4.60;;;3.60;;
12312;SDS011;6220;53.580;9.758;2023-07-08T14:54:25;7.63;;;3.90;;
12312;SDS011;6220;53.580;9.758;2023-07-08T14:56:52;5.10;;;3.70;;
12312;SDS011;6220;53.580;9.758;2023-07-08T14:59:18;4.57;;;3.43;;
12312;SDS011;6220;53.580;9.758;2023-07-08T15:01:46;3.77;;;3.37;;
12312;SDS011;6220;53.580;9.758;2023-07-08T15:04:12;4.17;;;3.77;;
12312;SDS011;6220;53.580;9.758;2023-07-08T15:06:40;4.07;;;3.53;;
12312;SDS011;6220;53.580;9.758;2023-07-08T15:09:06;4.97;;;3.73;;
12312;SDS011;6220;53.580;9.758;2023-07-08T15:11:31;4.83;;;3.97;;
12312;SDS011;6220;53.580;9.758;2023-07-08T15:13:57;5.73;;;3.60;;
12312;SDS011;6220;53.580;9.758;2023-07-08T15:16:23;4.37;;;3.97;;
12312;SDS011;6220;53.580;9.758;2023-07-08T15:18:49;3.97;;;3.58;;
12312;SDS011;6220;53.580;9.758;2023-07-08T15:21:14;4.53;;;3.77;;
12312;SDS011;6220;53.580;9.758;2023-07-08T15:23:40;5.83;;;3.90;;
12312;SDS011;6220;53.580;9.758;2023-07-08T15:26:08;4.60;;;4.10;;
12312;SDS011;6220;53.580;9.758;2023-07-08T15:28:38;4.30;;;3.63;;
12312;SDS011;6220;53.580;9.758;2023-07-08T15:31:08;4.43;;;3.50;;
12312;SDS011;6220;53.580;9.758;2023-07-08T15:33:35;7.47;;;4.00;;
12312;SDS011;6220;53.580;9.758;2023-07-08T15:36:07;5.33;;;4.27;;
12312;SDS011;6220;53.580;9.758;2023-07-08T15:38:34;8.07;;;6.83;;
12312;SDS011;6220;53.580;9.758;2023-07-08T15:40:59;5.90;;;3.97;;
12312;SDS011;6220;53.580;9.758;2023-07-08T15:43:25;18.30;;;14.47;;
12312;SDS011;6220;53.580;9.758;2023-07-08T15:45:50;16.77;;;13.83;;
12312;SDS011;6220;53.580;9.758;2023-07-08T15:48:16;6.33;;;5.73;;
12312;SDS011;6220;53.580;9.758;2023-07-08T15:50:43;4.97;;;3.97;;
12312;SDS011;6220;53.580;9.758;2023-07-08T15:53:08;5.27;;;3.50;;
12312;SDS011;6220;53.580;9.758;2023-07-08T15:55:35;5.60;;;3.97;;
12312;SDS011;6220;53.580;9.758;2023-07-08T15:58:08;5.33;;;3.80;;
12312;SDS011;6220;53.580;9.758;2023-07-08T16:00:40;4.47;;;3.83;;
12312;SDS011;6220;53.580;9.758;2023-07-08T16:03:11;4.63;;;3.67;;
12312;SDS011;6220;53.580;9.758;2023-07-08T16:05:39;4.00;;;3.60;;
12312;SDS011;6220;53.580;9.758;2023-07-08T16:08:05;5.73;;;3.80;;
12312;SDS011;6220;53.580;9.758;2023-07-08T16:10:30;4.63;;;3.50;;
12312;SDS011;6220;53.580;9.758;2023-07-08T16:12:56;6.03;;;3.87;;
12312;SDS011;6220;53.580;9.758;2023-07-08T16:15:30;4.70;;;3.73;;